CSL Niagara — VCGJ — position and weather

sailwx.info

Track history (hours):
 
Tides and Currents Weather Stations Pressure Air Temp Water Temp Dewpoint Dewpoint Depression Visibility Wind Speed Wind Dir Waves Ship Positions

CSL Niagara

ex J. W. McGiffin

Last reported at 2017-Jun-22 00:57 UTC. Time now 2017-Jun-26 08:54 UTC.
Position N 45°53' W 083°49'.

Length 225 m; draft 7.1 m.

Type: Cargo ship. MMSI: 316029000.

Date/timePositionNaut miles runAvg speedWind from/ knotsBaromVisibWave heightAir tempDewpointWater temp
2017-Jun-22 00:57N 45°53' W 083°49'511.5
2017-Jun-22 00:30N 45°57' W 083°54'21 9.2
2017-Jun-21 22:16N 46°14' W 084°10'  
2017-Jun-17 19:33N 45°48' W 083°45'212.5
2017-Jun-17 19:24N 45°47' W 083°43'512.4
2017-Jun-17 19:01N 45°43' W 083°39'612.4
2017-Jun-17 18:30N 45°38' W 083°34'612.4
2017-Jun-17 18:01N 45°32' W 083°29'612.5
2017-Jun-17 17:30N 45°27' W 083°24'  
Track history (hours):
 
Tides and Currents Weather Stations Pressure Air Temp Water Temp Dewpoint Dewpoint Depression Visibility Wind Speed Wind Dir Waves Ship Positions

CSL Niagara

ex J. W. McGiffin

Last reported at 2017-Jun-22 00:57 UTC. Time now 2017-Jun-26 08:54 UTC.
Position N 45°53' W 083°49'.

Length 225 m; draft 7.1 m.

Type: Cargo ship. MMSI: 316029000.

Date/timePositionNaut miles runAvg speedWind from/ knotsBaromVisibWave heightAir tempDewpointWater temp
2017-Jun-22 00:57N 45°53' W 083°49'511.5
2017-Jun-22 00:30N 45°57' W 083°54'21 9.2
2017-Jun-21 22:16N 46°14' W 084°10'  
2017-Jun-17 19:33N 45°48' W 083°45'212.5
2017-Jun-17 19:24N 45°47' W 083°43'512.4
2017-Jun-17 19:01N 45°43' W 083°39'612.4
2017-Jun-17 18:30N 45°38' W 083°34'612.4
2017-Jun-17 18:01N 45°32' W 083°29'612.5
2017-Jun-17 17:30N 45°27' W 083°24'  

Dump ship's entire track history